sensor_id;sensor_type;location;lat;lon;timestamp;pressure;altitude;pressure_sealevel;temperature;humidity
12785;BME280;6456;42.680;23.260;2023-08-06T00:00:11;93422.69;;;19.71;100.00
12785;BME280;6456;42.680;23.260;2023-08-06T00:02:37;93466.66;;;20.01;100.00
12785;BME280;6456;42.680;23.260;2023-08-06T00:05:05;93462.59;;;19.90;100.00
12785;BME280;6456;42.680;23.260;2023-08-06T00:07:33;93480.00;;;20.01;100.00
12785;BME280;6456;42.680;23.260;2023-08-06T00:10:01;93563.94;;;20.63;100.00
12785;BME280;6456;42.680;23.260;2023-08-06T00:12:28;93567.31;;;20.69;100.00
12785;BME280;6456;42.680;23.260;2023-08-06T00:14:55;93516.38;;;20.38;100.00
12785;BME280;6456;42.680;23.260;2023-08-06T00:17:24;93553.63;;;20.84;100.00
12785;BME280;6456;42.680;23.260;2023-08-06T00:19:51;93556.50;;;20.74;100.00
12785;BME280;6456;42.680;23.260;2023-08-06T00:22:18;93532.88;;;20.54;100.00
12785;BME280;6456;42.680;23.260;2023-08-06T00:24:47;93477.50;;;20.18;100.00
12785;BME280;6456;42.680;23.260;2023-08-06T00:27:14;93447.75;;;20.11;100.00
12785;BME280;6456;42.680;23.260;2023-08-06T00:29:41;93480.78;;;20.29;100.00
12785;BME280;6456;42.680;23.260;2023-08-06T00:32:08;93550.06;;;20.75;100.00
12785;BME280;6456;42.680;23.260;2023-08-06T00:34:34;93532.25;;;20.70;100.00
12785;BME280;6456;42.680;23.260;2023-08-06T00:37:01;93530.75;;;20.78;100.00
12785;BME280;6456;42.680;23.260;2023-08-06T00:39:28;93521.25;;;20.72;100.00
12785;BME280;6456;42.680;23.260;2023-08-06T00:41:57;93431.91;;;20.15;100.00
12785;BME280;6456;42.680;23.260;2023-08-06T00:44:24;93542.50;;;20.90;100.00
12785;BME280;6456;42.680;23.260;2023-08-06T00:46:51;93511.56;;;20.76;100.00
12785;BME280;6456;42.680;23.260;2023-08-06T00:49:18;93509.78;;;20.71;100.00
12785;BME280;6456;42.680;23.260;2023-08-06T00:51:45;93514.81;;;20.73;100.00
12785;BME280;6456;42.680;23.260;2023-08-06T00:54:14;93466.47;;;20.47;100.00
12785;BME280;6456;42.680;23.260;2023-08-06T00:56:42;93434.28;;;20.16;100.00
12785;BME280;6456;42.680;23.260;2023-08-06T00:59:10;93431.63;;;20.16;100.00
12785;BME280;6456;42.680;23.260;2023-08-06T01:01:38;93467.06;;;20.58;100.00
12785;BME280;6456;42.680;23.260;2023-08-06T01:04:05;93484.75;;;20.67;100.00
12785;BME280;6456;42.680;23.260;2023-08-06T01:06:48;93389.00;;;20.11;100.00
12785;BME280;6456;42.680;23.260;2023-08-06T01:09:27;93437.38;;;20.59;100.00
12785;BME280;6456;42.680;23.260;2023-08-06T01:12:04;93478.63;;;20.89;100.00
12785;BME280;6456;42.680;23.260;2023-08-06T01:14:42;93362.91;;;19.95;100.00
12785;BME280;6456;42.680;23.260;2023-08-06T01:17:13;93519.47;;;20.81;100.00
12785;BME280;6456;42.680;23.260;2023-08-06T01:19:40;93469.13;;;20.61;100.00
12785;BME280;6456;42.680;23.260;2023-08-06T01:22:08;93486.31;;;20.68;100.00
12785;BME280;6456;42.680;23.260;2023-08-06T01:24:35;93462.13;;;20.51;100.00
12785;BME280;6456;42.680;23.260;2023-08-06T01:27:08;93497.06;;;20.77;100.00
12785;BME280;6456;42.680;23.260;2023-08-06T01:29:42;93439.22;;;20.36;100.00
12785;BME280;6456;42.680;23.260;2023-08-06T01:32:11;93369.94;;;19.91;100.00
12785;BME280;6456;42.680;23.260;2023-08-06T01:34:40;93485.47;;;20.59;100.00
12785;BME280;6456;42.680;23.260;2023-08-06T01:37:11;93461.53;;;20.54;100.00
12785;BME280;6456;42.680;23.260;2023-08-06T01:39:40;93457.97;;;20.45;100.00
12785;BME280;6456;42.680;23.260;2023-08-06T01:42:09;93487.84;;;20.61;100.00
12785;BME280;6456;42.680;23.260;2023-08-06T01:44:35;93448.31;;;20.35;100.00
12785;BME280;6456;42.680;23.260;2023-08-06T01:47:03;93428.75;;;19.99;100.00
12785;BME280;6456;42.680;23.260;2023-08-06T01:49:30;93379.38;;;19.61;100.00
12785;BME280;6456;42.680;23.260;2023-08-06T01:51:57;93495.22;;;20.28;100.00
12785;BME280;6456;42.680;23.260;2023-08-06T01:54:25;93363.19;;;19.44;100.00
12785;BME280;6456;42.680;23.260;2023-08-06T01:56:53;93473.84;;;20.28;100.00
12785;BME280;6456;42.680;23.260;2023-08-06T01:59:20;93407.13;;;19.87;100.00
12785;BME280;6456;42.680;23.260;2023-08-06T02:01:46;93457.91;;;20.36;100.00
12785;BME280;6456;42.680;23.260;2023-08-06T02:04:13;93395.75;;;19.95;100.00
12785;BME280;6456;42.680;23.260;2023-08-06T02:06:40;93459.69;;;20.41;100.00
12785;BME280;6456;42.680;23.260;2023-08-06T02:09:07;93413.72;;;20.03;100.00
12785;BME280;6456;42.680;23.260;2023-08-06T02:11:35;93441.09;;;20.22;100.00
12785;BME280;6456;42.680;23.260;2023-08-06T02:14:02;93431.09;;;20.14;100.00
12785;BME280;6456;42.680;23.260;2023-08-06T02:16:29;93456.81;;;20.37;100.00
12785;BME280;6456;42.680;23.260;2023-08-06T02:18:56;93349.25;;;19.60;100.00
12785;BME280;6456;42.680;23.260;2023-08-06T02:21:23;93410.06;;;19.99;100.00
12785;BME280;6456;42.680;23.260;2023-08-06T02:23:50;93444.28;;;20.24;100.00
12785;BME280;6456;42.680;23.260;2023-08-06T02:26:17;93470.66;;;20.39;100.00
12785;BME280;6456;42.680;23.260;2023-08-06T02:28:45;93484.94;;;20.71;100.00
12785;BME280;6456;42.680;23.260;2023-08-06T02:31:12;93448.88;;;20.46;100.00
12785;BME280;6456;42.680;23.260;2023-08-06T02:33:39;93346.84;;;19.72;100.00
12785;BME280;6456;42.680;23.260;2023-08-06T02:36:06;93369.59;;;19.70;100.00
12785;BME280;6456;42.680;23.260;2023-08-06T02:38:33;93367.91;;;19.47;100.00
12785;BME280;6456;42.680;23.260;2023-08-06T02:41:02;93522.63;;;20.33;100.00
12785;BME280;6456;42.680;23.260;2023-08-06T02:43:29;93424.94;;;19.78;100.00
12785;BME280;6456;42.680;23.260;2023-08-06T02:45:58;93493.41;;;20.37;100.00
12785;BME280;6456;42.680;23.260;2023-08-06T02:48:25;93442.78;;;20.18;100.00
12785;BME280;6456;42.680;23.260;2023-08-06T02:50:52;93457.69;;;20.19;100.00
12785;BME280;6456;42.680;23.260;2023-08-06T02:53:19;93363.16;;;19.57;100.00
12785;BME280;6456;42.680;23.260;2023-08-06T02:55:47;93408.03;;;19.96;100.00
12785;BME280;6456;42.680;23.260;2023-08-06T02:58:14;93441.09;;;20.22;100.00
12785;BME280;6456;42.680;23.260;2023-08-06T03:00:41;93451.09;;;20.17;100.00
12785;BME280;6456;42.680;23.260;2023-08-06T03:03:10;93453.25;;;20.15;100.00
12785;BME280;6456;42.680;23.260;2023-08-06T03:05:37;93409.19;;;20.04;100.00
12785;BME280;6456;42.680;23.260;2023-08-06T03:08:04;93401.13;;;20.17;100.00
12785;BME280;6456;42.680;23.260;2023-08-06T03:10:30;93401.50;;;19.89;100.00
12785;BME280;6456;42.680;23.260;2023-08-06T03:12:57;93388.19;;;19.61;100.00
12785;BME280;6456;42.680;23.260;2023-08-06T03:15:24;93432.53;;;19.98;100.00
12785;BME280;6456;42.680;23.260;2023-08-06T03:17:51;93398.31;;;20.00;100.00
12785;BME280;6456;42.680;23.260;2023-08-06T03:20:19;93328.47;;;19.71;100.00
12785;BME280;6456;42.680;23.260;2023-08-06T03:22:46;93336.00;;;19.69;100.00
12785;BME280;6456;42.680;23.260;2023-08-06T03:25:13;93419.81;;;20.17;100.00
12785;BME280;6456;42.680;23.260;2023-08-06T03:27:40;93437.03;;;20.38;100.00
12785;BME280;6456;42.680;23.260;2023-08-06T03:30:08;93386.22;;;20.16;100.00
12785;BME280;6456;42.680;23.260;2023-08-06T03:32:35;93442.44;;;20.47;100.00
12785;BME280;6456;42.680;23.260;2023-08-06T03:35:02;93454.59;;;20.53;100.00
12785;BME280;6456;42.680;23.260;2023-08-06T03:37:30;93436.34;;;20.33;100.00
12785;BME280;6456;42.680;23.260;2023-08-06T03:39:57;93462.50;;;20.58;100.00
12785;BME280;6456;42.680;23.260;2023-08-06T03:42:24;93487.78;;;20.74;100.00
12785;BME280;6456;42.680;23.260;2023-08-06T03:44:51;93344.75;;;19.83;100.00
12785;BME280;6456;42.680;23.260;2023-08-06T03:47:18;93425.25;;;20.39;100.00
12785;BME280;6456;42.680;23.260;2023-08-06T03:49:44;93380.31;;;20.06;100.00
12785;BME280;6456;42.680;23.260;2023-08-06T03:52:11;93486.63;;;20.67;100.00
12785;BME280;6456;42.680;23.260;2023-08-06T03:54:39;93505.50;;;20.84;100.00
12785;BME280;6456;42.680;23.260;2023-08-06T03:57:08;93448.84;;;20.60;100.00
12785;BME280;6456;42.680;23.260;2023-08-06T03:59:35;93507.25;;;20.88;100.00
12785;BME280;6456;42.680;23.260;2023-08-06T04:02:03;93497.84;;;20.91;100.00
12785;BME280;6456;42.680;23.260;2023-08-06T04:04:29;93489.56;;;20.79;100.00
12785;BME280;6456;42.680;23.260;2023-08-06T04:06:56;93387.88;;;20.12;100.00
12785;BME280;6456;42.680;23.260;2023-08-06T04:09:23;93521.59;;;20.92;100.00
12785;BME280;6456;42.680;23.260;2023-08-06T04:11:52;93384.44;;;20.12;100.00
12785;BME280;6456;42.680;23.260;2023-08-06T04:14:19;93518.19;;;21.00;100.00
12785;BME280;6456;42.680;23.260;2023-08-06T04:16:46;93381.59;;;20.08;100.00
12785;BME280;6456;42.680;23.260;2023-08-06T04:19:12;93513.81;;;21.04;100.00
12785;BME280;6456;42.680;23.260;2023-08-06T04:21:39;93428.69;;;20.54;100.00
12785;BME280;6456;42.680;23.260;2023-08-06T04:24:06;93446.25;;;20.68;100.00
12785;BME280;6456;42.680;23.260;2023-08-06T04:26:33;93457.25;;;20.89;100.00
12785;BME280;6456;42.680;23.260;2023-08-06T04:29:01;93468.13;;;20.92;100.00
12785;BME280;6456;42.680;23.260;2023-08-06T04:31:29;93435.59;;;20.77;100.00
12785;BME280;6456;42.680;23.260;2023-08-06T04:33:56;93483.22;;;21.11;100.00
12785;BME280;6456;42.680;23.260;2023-08-06T04:36:23;93447.03;;;20.69;100.00
12785;BME280;6456;42.680;23.260;2023-08-06T04:38:49;93453.69;;;20.80;100.00
12785;BME280;6456;42.680;23.260;2023-08-06T04:41:16;93492.16;;;21.06;100.00
12785;BME280;6456;42.680;23.260;2023-08-06T04:43:43;93481.56;;;21.01;100.00
12785;BME280;6456;42.680;23.260;2023-08-06T04:46:11;93447.31;;;20.89;100.00
12785;BME280;6456;42.680;23.260;2023-08-06T04:48:38;93433.31;;;20.84;100.00
12785;BME280;6456;42.680;23.260;2023-08-06T04:51:05;93449.88;;;20.94;100.00
12785;BME280;6456;42.680;23.260;2023-08-06T04:53:32;93404.78;;;20.57;100.00
12785;BME280;6456;42.680;23.260;2023-08-06T04:55:59;93454.31;;;20.77;100.00
12785;BME280;6456;42.680;23.260;2023-08-06T04:58:26;93434.63;;;20.73;100.00
12785;BME280;6456;42.680;23.260;2023-08-06T05:00:53;93429.88;;;20.70;100.00
12785;BME280;6456;42.680;23.260;2023-08-06T05:03:22;93422.41;;;20.58;100.00
12785;BME280;6456;42.680;23.260;2023-08-06T05:05:49;93430.50;;;20.67;100.00
12785;BME280;6456;42.680;23.260;2023-08-06T05:08:16;93418.47;;;20.56;100.00
12785;BME280;6456;42.680;23.260;2023-08-06T05:10:43;93345.66;;;20.14;100.00
12785;BME280;6456;42.680;23.260;2023-08-06T05:13:10;93419.78;;;20.67;100.00
12785;BME280;6456;42.680;23.260;2023-08-06T05:15:37;93439.63;;;20.88;100.00
12785;BME280;6456;42.680;23.260;2023-08-06T05:18:05;93433.47;;;20.87;100.00
12785;BME280;6456;42.680;23.260;2023-08-06T05:20:36;93404.16;;;20.74;100.00
12785;BME280;6456;42.680;23.260;2023-08-06T05:23:03;93445.69;;;21.02;100.00
12785;BME280;6456;42.680;23.260;2023-08-06T05:25:30;93440.09;;;21.12;100.00
12785;BME280;6456;42.680;23.260;2023-08-06T05:27:57;93322.06;;;20.52;100.00
12785;BME280;6456;42.680;23.260;2023-08-06T05:30:24;93383.34;;;20.93;100.00
12785;BME280;6456;42.680;23.260;2023-08-06T05:32:51;93378.84;;;20.80;100.00
12785;BME280;6456;42.680;23.260;2023-08-06T05:35:18;93351.28;;;20.71;100.00
12785;BME280;6456;42.680;23.260;2023-08-06T05:37:46;93449.09;;;21.38;100.00
12785;BME280;6456;42.680;23.260;2023-08-06T05:40:13;93367.31;;;20.93;100.00
12785;BME280;6456;42.680;23.260;2023-08-06T05:42:40;93421.06;;;21.36;100.00
12785;BME280;6456;42.680;23.260;2023-08-06T05:45:08;93419.19;;;21.36;100.00
12785;BME280;6456;42.680;23.260;2023-08-06T05:47:35;93409.91;;;21.42;100.00
12785;BME280;6456;42.680;23.260;2023-08-06T05:50:02;93309.09;;;20.90;100.00
12785;BME280;6456;42.680;23.260;2023-08-06T05:52:29;93442.50;;;21.84;100.00
12785;BME280;6456;42.680;23.260;2023-08-06T05:54:57;93447.41;;;21.82;100.00
12785;BME280;6456;42.680;23.260;2023-08-06T05:57:24;93435.41;;;21.79;100.00
12785;BME280;6456;42.680;23.260;2023-08-06T05:59:51;93451.44;;;22.10;100.00
12785;BME280;6456;42.680;23.260;2023-08-06T06:02:17;93464.53;;;22.20;100.00
12785;BME280;6456;42.680;23.260;2023-08-06T06:04:44;93421.34;;;22.13;100.00
12785;BME280;6456;42.680;23.260;2023-08-06T06:07:11;93424.69;;;22.27;100.00
12785;BME280;6456;42.680;23.260;2023-08-06T06:09:39;93405.28;;;22.21;100.00
12785;BME280;6456;42.680;23.260;2023-08-06T06:12:07;93432.72;;;22.27;100.00
12785;BME280;6456;42.680;23.260;2023-08-06T06:14:34;93412.50;;;22.12;100.00
12785;BME280;6456;42.680;23.260;2023-08-06T06:17:01;93406.25;;;22.17;100.00
12785;BME280;6456;42.680;23.260;2023-08-06T06:19:28;93485.25;;;22.45;100.00
12785;BME280;6456;42.680;23.260;2023-08-06T06:21:55;93491.38;;;22.37;100.00
12785;BME280;6456;42.680;23.260;2023-08-06T06:24:23;93501.47;;;22.40;100.00
12785;BME280;6456;42.680;23.260;2023-08-06T06:26:50;93424.94;;;21.91;100.00
12785;BME280;6456;42.680;23.260;2023-08-06T06:29:18;93446.56;;;22.12;100.00
12785;BME280;6456;42.680;23.260;2023-08-06T06:31:45;93497.84;;;22.45;100.00
12785;BME280;6456;42.680;23.260;2023-08-06T06:34:12;93478.09;;;22.23;100.00
12785;BME280;6456;42.680;23.260;2023-08-06T06:36:38;93459.94;;;22.03;100.00
12785;BME280;6456;42.680;23.260;2023-08-06T06:39:05;93538.19;;;22.40;100.00
12785;BME280;6456;42.680;23.260;2023-08-06T06:41:33;93461.06;;;21.71;100.00
12785;BME280;6456;42.680;23.260;2023-08-06T06:44:00;93536.53;;;22.04;100.00
12785;BME280;6456;42.680;23.260;2023-08-06T06:46:28;93549.47;;;22.11;100.00
12785;BME280;6456;42.680;23.260;2023-08-06T06:48:55;93440.59;;;21.45;100.00
12785;BME280;6456;42.680;23.260;2023-08-06T06:51:22;93467.38;;;21.76;100.00
12785;BME280;6456;42.680;23.260;2023-08-06T06:53:49;93440.13;;;21.73;100.00
12785;BME280;6456;42.680;23.260;2023-08-06T06:56:16;93490.84;;;22.18;100.00
12785;BME280;6456;42.680;23.260;2023-08-06T06:58:43;93455.09;;;22.14;100.00
12785;BME280;6456;42.680;23.260;2023-08-06T07:01:10;93521.25;;;22.70;100.00
12785;BME280;6456;42.680;23.260;2023-08-06T07:03:38;93434.88;;;22.08;100.00
12785;BME280;6456;42.680;23.260;2023-08-06T07:06:05;93493.56;;;22.35;100.00
12785;BME280;6456;42.680;23.260;2023-08-06T07:08:32;93471.34;;;22.26;100.00
12785;BME280;6456;42.680;23.260;2023-08-06T07:11:02;93566.06;;;22.78;100.00
12785;BME280;6456;42.680;23.260;2023-08-06T07:13:30;93510.03;;;22.59;100.00
12785;BME280;6456;42.680;23.260;2023-08-06T07:15:57;93477.50;;;22.52;100.00
12785;BME280;6456;42.680;23.260;2023-08-06T07:18:26;93437.94;;;22.32;100.00
12785;BME280;6456;42.680;23.260;2023-08-06T07:20:55;93461.13;;;22.45;100.00
12785;BME280;6456;42.680;23.260;2023-08-06T07:23:23;93561.06;;;23.02;100.00
12785;BME280;6456;42.680;23.260;2023-08-06T07:25:51;93525.84;;;22.69;100.00
12785;BME280;6456;42.680;23.260;2023-08-06T07:28:18;93539.25;;;22.78;100.00
12785;BME280;6456;42.680;23.260;2023-08-06T07:30:45;93477.97;;;22.28;100.00
12785;BME280;6456;42.680;23.260;2023-08-06T07:33:12;93496.09;;;22.40;100.00
12785;BME280;6456;42.680;23.260;2023-08-06T07:35:39;93464.69;;;22.15;100.00
12785;BME280;6456;42.680;23.260;2023-08-06T07:38:07;93565.03;;;23.05;100.00
12785;BME280;6456;42.680;23.260;2023-08-06T07:40:35;93506.72;;;22.62;100.00
12785;BME280;6456;42.680;23.260;2023-08-06T07:43:02;93487.19;;;22.62;100.00
12785;BME280;6456;42.680;23.260;2023-08-06T07:45:32;93505.81;;;22.67;100.00
12785;BME280;6456;42.680;23.260;2023-08-06T07:47:59;93529.81;;;23.06;100.00
12785;BME280;6456;42.680;23.260;2023-08-06T07:50:26;93558.56;;;23.40;100.00
12785;BME280;6456;42.680;23.260;2023-08-06T07:52:53;93541.34;;;23.41;100.00
12785;BME280;6456;42.680;23.260;2023-08-06T07:55:22;93522.72;;;23.36;100.00
12785;BME280;6456;42.680;23.260;2023-08-06T07:57:48;93519.25;;;23.44;100.00
12785;BME280;6456;42.680;23.260;2023-08-06T08:00:15;93444.63;;;22.94;100.00
12785;BME280;6456;42.680;23.260;2023-08-06T08:02:42;93553.16;;;23.74;100.00
12785;BME280;6456;42.680;23.260;2023-08-06T08:05:09;93520.47;;;23.64;100.00
12785;BME280;6456;42.680;23.260;2023-08-06T08:07:36;93551.69;;;23.85;100.00
12785;BME280;6456;42.680;23.260;2023-08-06T08:10:04;93464.13;;;23.29;100.00
12785;BME280;6456;42.680;23.260;2023-08-06T08:12:32;93492.06;;;23.54;97.91
12785;BME280;6456;42.680;23.260;2023-08-06T08:14:59;93550.66;;;24.15;99.71
12785;BME280;6456;42.680;23.260;2023-08-06T08:17:26;93567.22;;;24.35;99.11
12785;BME280;6456;42.680;23.260;2023-08-06T08:19:53;93470.47;;;23.88;99.31
12785;BME280;6456;42.680;23.260;2023-08-06T08:22:20;93533.19;;;24.39;98.81
12785;BME280;6456;42.680;23.260;2023-08-06T08:24:47;93557.09;;;24.61;100.00
12785;BME280;6456;42.680;23.260;2023-08-06T08:27:13;93500.69;;;24.23;100.00
12785;BME280;6456;42.680;23.260;2023-08-06T08:29:49;93545.03;;;24.38;100.00
12785;BME280;6456;42.680;23.260;2023-08-06T08:32:16;93546.81;;;24.34;100.00
12785;BME280;6456;42.680;23.260;2023-08-06T08:34:43;93530.13;;;24.19;100.00
12785;BME280;6456;42.680;23.260;2023-08-06T08:37:10;93480.00;;;23.77;100.00
12785;BME280;6456;42.680;23.260;2023-08-06T08:39:37;93477.59;;;23.84;100.00
12785;BME280;6456;42.680;23.260;2023-08-06T08:42:05;93509.75;;;24.10;100.00
12785;BME280;6456;42.680;23.260;2023-08-06T08:45:15;93494.34;;;23.90;95.25
12785;BME280;6456;42.680;23.260;2023-08-06T08:48:00;93464.06;;;23.72;95.12
12785;BME280;6456;42.680;23.260;2023-08-06T08:50:30;93449.56;;;23.65;94.50
12785;BME280;6456;42.680;23.260;2023-08-06T08:53:07;93495.72;;;23.96;96.01
12785;BME280;6456;42.680;23.260;2023-08-06T08:55:35;93455.69;;;23.65;93.59
12785;BME280;6456;42.680;23.260;2023-08-06T08:58:04;93507.38;;;24.08;92.29
12785;BME280;6456;42.680;23.260;2023-08-06T09:00:32;93472.31;;;23.96;93.06
12785;BME280;6456;42.680;23.260;2023-08-06T09:03:01;93390.22;;;23.40;99.11
12785;BME280;6456;42.680;23.260;2023-08-06T09:05:29;93519.38;;;24.19;100.00
12785;BME280;6456;42.680;23.260;2023-08-06T09:08:03;93418.31;;;23.51;100.00
12785;BME280;6456;42.680;23.260;2023-08-06T09:10:31;93444.13;;;23.73;99.72
12785;BME280;6456;42.680;23.260;2023-08-06T09:12:58;93468.09;;;23.87;96.65
12785;BME280;6456;42.680;23.260;2023-08-06T09:15:26;93472.34;;;23.88;96.03
12785;BME280;6456;42.680;23.260;2023-08-06T09:17:57;93522.97;;;24.23;95.70
12785;BME280;6456;42.680;23.260;2023-08-06T09:20:24;93412.09;;;23.68;97.12
12785;BME280;6456;42.680;23.260;2023-08-06T09:22:52;93522.69;;;24.46;92.98
12785;BME280;6456;42.680;23.260;2023-08-06T09:25:21;93432.38;;;23.86;97.13
12785;BME280;6456;42.680;23.260;2023-08-06T09:27:50;93414.13;;;24.00;88.67
12785;BME280;6456;42.680;23.260;2023-08-06T09:30:30;93486.91;;;24.54;86.70
12785;BME280;6456;42.680;23.260;2023-08-06T09:32:59;93504.19;;;24.73;89.25
12785;BME280;6456;42.680;23.260;2023-08-06T09:35:29;93527.59;;;24.81;86.01
12785;BME280;6456;42.680;23.260;2023-08-06T09:37:56;93467.06;;;24.38;86.97
12785;BME280;6456;42.680;23.260;2023-08-06T09:40:32;93391.63;;;23.84;89.29
12785;BME280;6456;42.680;23.260;2023-08-06T09:43:00;93504.94;;;24.53;89.91
12785;BME280;6456;42.680;23.260;2023-08-06T09:45:30;93449.50;;;24.40;89.81
12785;BME280;6456;42.680;23.260;2023-08-06T09:47:59;93364.25;;;23.91;89.56
12785;BME280;6456;42.680;23.260;2023-08-06T09:50:34;93466.97;;;24.75;90.02
12785;BME280;6456;42.680;23.260;2023-08-06T09:53:01;93474.56;;;24.82;89.01
12785;BME280;6456;42.680;23.260;2023-08-06T09:55:29;93504.94;;;25.24;85.45
12785;BME280;6456;42.680;23.260;2023-08-06T09:57:56;93445.28;;;25.01;81.73
12785;BME280;6456;42.680;23.260;2023-08-06T10:00:25;93478.91;;;25.28;81.62
12785;BME280;6456;42.680;23.260;2023-08-06T10:02:53;93501.06;;;25.33;82.92
12785;BME280;6456;42.680;23.260;2023-08-06T10:05:23;93448.28;;;24.88;83.99
12785;BME280;6456;42.680;23.260;2023-08-06T10:07:51;93456.94;;;25.05;81.65
12785;BME280;6456;42.680;23.260;2023-08-06T10:10:18;93399.16;;;24.70;78.69
12785;BME280;6456;42.680;23.260;2023-08-06T10:12:48;93514.34;;;25.71;78.09
12785;BME280;6456;42.680;23.260;2023-08-06T10:15:19;93529.53;;;25.88;76.62
12785;BME280;6456;42.680;23.260;2023-08-06T10:17:47;93524.59;;;25.78;76.33
12785;BME280;6456;42.680;23.260;2023-08-06T10:20:17;93519.78;;;25.95;78.00
12785;BME280;6456;42.680;23.260;2023-08-06T10:22:59;93490.91;;;25.96;75.21
12785;BME280;6456;42.680;23.260;2023-08-06T10:25:30;93479.69;;;25.94;75.69
12785;BME280;6456;42.680;23.260;2023-08-06T10:27:57;93515.69;;;26.34;75.21
12785;BME280;6456;42.680;23.260;2023-08-06T10:30:25;93456.97;;;25.83;74.41
12785;BME280;6456;42.680;23.260;2023-08-06T10:32:54;93508.56;;;26.05;76.76
12785;BME280;6456;42.680;23.260;2023-08-06T10:35:35;93528.31;;;26.30;79.24
12785;BME280;6456;42.680;23.260;2023-08-06T10:38:08;93474.00;;;26.07;78.89
12785;BME280;6456;42.680;23.260;2023-08-06T10:40:35;93443.50;;;25.83;82.31
12785;BME280;6456;42.680;23.260;2023-08-06T10:43:03;93459.34;;;25.72;82.61
12785;BME280;6456;42.680;23.260;2023-08-06T10:45:34;93544.66;;;26.13;83.50
12785;BME280;6456;42.680;23.260;2023-08-06T10:48:02;93475.16;;;25.74;82.64
12785;BME280;6456;42.680;23.260;2023-08-06T10:50:29;93548.94;;;26.26;82.27
12785;BME280;6456;42.680;23.260;2023-08-06T10:52:57;93486.69;;;26.07;82.32
12785;BME280;6456;42.680;23.260;2023-08-06T10:55:26;93478.19;;;26.17;82.90
12785;BME280;6456;42.680;23.260;2023-08-06T10:57:55;93470.41;;;26.16;80.12
12785;BME280;6456;42.680;23.260;2023-08-06T11:00:23;93556.28;;;26.74;77.64
12785;BME280;6456;42.680;23.260;2023-08-06T11:02:51;93483.34;;;26.22;78.57
12785;BME280;6456;42.680;23.260;2023-08-06T11:05:18;93493.69;;;26.44;76.79
12785;BME280;6456;42.680;23.260;2023-08-06T11:07:45;93489.47;;;26.10;79.67
12785;BME280;6456;42.680;23.260;2023-08-06T11:10:14;93488.41;;;25.79;80.66
12785;BME280;6456;42.680;23.260;2023-08-06T11:12:42;93558.94;;;25.81;87.21
12785;BME280;6456;42.680;23.260;2023-08-06T11:15:10;93579.59;;;25.77;83.34
12785;BME280;6456;42.680;23.260;2023-08-06T11:17:39;93574.88;;;25.53;84.09
12785;BME280;6456;42.680;23.260;2023-08-06T11:20:07;93556.94;;;25.36;85.90
12785;BME280;6456;42.680;23.260;2023-08-06T11:22:36;93578.38;;;25.54;85.78
12785;BME280;6456;42.680;23.260;2023-08-06T11:25:03;93583.94;;;25.48;85.12
12785;BME280;6456;42.680;23.260;2023-08-06T11:27:33;93509.09;;;25.01;87.01
12785;BME280;6456;42.680;23.260;2023-08-06T11:30:01;93581.78;;;25.42;86.71
12785;BME280;6456;42.680;23.260;2023-08-06T11:32:29;93463.03;;;24.73;87.69
12785;BME280;6456;42.680;23.260;2023-08-06T11:34:56;93508.22;;;25.09;90.74
12785;BME280;6456;42.680;23.260;2023-08-06T11:37:23;93516.56;;;25.36;91.80
12785;BME280;6456;42.680;23.260;2023-08-06T11:39:52;93542.06;;;25.72;89.66
12785;BME280;6456;42.680;23.260;2023-08-06T11:42:19;93478.25;;;25.52;89.76
12785;BME280;6456;42.680;23.260;2023-08-06T11:44:46;93544.59;;;26.01;86.72
12785;BME280;6456;42.680;23.260;2023-08-06T11:47:16;93543.28;;;26.07;83.21
12785;BME280;6456;42.680;23.260;2023-08-06T11:49:45;93543.94;;;26.04;85.60
12785;BME280;6456;42.680;23.260;2023-08-06T11:52:17;93529.22;;;25.89;82.38
12785;BME280;6456;42.680;23.260;2023-08-06T11:55:00;93492.00;;;25.71;81.95
12785;BME280;6456;42.680;23.260;2023-08-06T11:57:29;93551.81;;;26.09;85.29
12785;BME280;6456;42.680;23.260;2023-08-06T12:00:01;93472.16;;;25.42;83.89
12785;BME280;6456;42.680;23.260;2023-08-06T12:02:32;93541.69;;;25.94;81.10
12785;BME280;6456;42.680;23.260;2023-08-06T12:05:03;93510.56;;;25.84;80.99
12785;BME280;6456;42.680;23.260;2023-08-06T12:07:31;93510.75;;;26.12;79.26
12785;BME280;6456;42.680;23.260;2023-08-06T12:09:59;93523.91;;;26.50;78.56
12785;BME280;6456;42.680;23.260;2023-08-06T12:12:27;93456.59;;;26.17;78.00
12785;BME280;6456;42.680;23.260;2023-08-06T12:14:54;93487.16;;;26.45;76.22
12785;BME280;6456;42.680;23.260;2023-08-06T12:17:24;93436.34;;;25.87;74.93
12785;BME280;6456;42.680;23.260;2023-08-06T12:19:53;93449.25;;;25.81;76.76
12785;BME280;6456;42.680;23.260;2023-08-06T12:22:19;93493.97;;;26.06;77.62
12785;BME280;6456;42.680;23.260;2023-08-06T12:24:47;93491.66;;;26.17;76.12
12785;BME280;6456;42.680;23.260;2023-08-06T12:27:17;93533.00;;;26.69;77.05
12785;BME280;6456;42.680;23.260;2023-08-06T12:29:45;93526.28;;;26.88;75.93
12785;BME280;6456;42.680;23.260;2023-08-06T12:32:12;93503.06;;;26.99;73.43
12785;BME280;6456;42.680;23.260;2023-08-06T12:34:39;93526.38;;;27.31;72.11
12785;BME280;6456;42.680;23.260;2023-08-06T12:37:08;93537.66;;;27.21;70.97
12785;BME280;6456;42.680;23.260;2023-08-06T12:39:35;93473.28;;;26.95;70.90
12785;BME280;6456;42.680;23.260;2023-08-06T12:42:04;93437.88;;;26.85;71.14
12785;BME280;6456;42.680;23.260;2023-08-06T12:44:32;93512.44;;;27.29;68.95
12785;BME280;6456;42.680;23.260;2023-08-06T12:46:59;93453.88;;;26.65;70.86
12785;BME280;6456;42.680;23.260;2023-08-06T12:49:26;93526.94;;;26.97;71.82
12785;BME280;6456;42.680;23.260;2023-08-06T12:51:54;93481.53;;;26.50;71.71
12785;BME280;6456;42.680;23.260;2023-08-06T12:54:24;93444.78;;;26.09;74.32
12785;BME280;6456;42.680;23.260;2023-08-06T12:56:51;93455.44;;;26.06;76.48